Time;durP1;ratioP1;P1;durP2;ratioP2;P2;SDS_P1;SDS_P2;PMS_P1;PMS_P2;Temp;Humidity;BMP_temperature;BMP_pressure;BME280_temperature;BME280_humidity;BME280_pressure;Samples;Min_cycle;Max_cycle;Signal;HPM_P1;HPM_P2
2023/02/14 00:02:18;;;;;;;68.00;44.40;;;;;;;;;;109927;1250;61993;-81
2023/02/14 00:04:46;;;;;;;60.90;42.30;;;;;;;;;;109880;1250;58895;-79
2023/02/14 00:07:13;;;;;;;61.90;44.00;;;;;;;;;;109719;1249;61115;-81
2023/02/14 00:09:40;;;;;;;66.40;44.60;;;;;;;;;;109800;1250;59017;-81
2023/02/14 00:12:06;;;;;;;65.00;42.90;;;;;;;;;;109553;1249;59250;-80
2023/02/14 00:17:18;;;;;;;59.80;41.40;;;;;;;;;;109742;1249;59101;-80
2023/02/14 00:19:45;;;;;;;59.70;42.50;;;;;;;;;;109692;1250;60912;-79
2023/02/14 00:22:11;;;;;;;70.60;49.00;;;;;;;;;;109693;1249;58988;-82
2023/02/14 00:24:38;;;;;;;70.00;47.80;;;;;;;;;;109755;1251;59120;-81
2023/02/14 00:27:04;;;;;;;69.70;49.10;;;;;;;;;;109765;1249;63133;-80
2023/02/14 00:29:32;;;;;;;73.50;48.20;;;;;;;;;;109781;1250;58855;-81
2023/02/14 00:31:58;;;;;;;67.20;46.60;;;;;;;;;;109319;1255;59999;-83
2023/02/14 00:34:26;;;;;;;63.90;44.70;;;;;;;;;;109321;1254;58950;-81
2023/02/14 00:36:52;;;;;;;64.10;44.90;;;;;;;;;;109261;1255;59095;-82
2023/02/14 00:39:19;;;;;;;67.80;46.10;;;;;;;;;;109344;1255;61941;-83
2023/02/14 00:41:45;;;;;;;66.10;45.20;;;;;;;;;;109348;1255;59065;-83
2023/02/14 00:44:12;;;;;;;66.20;46.10;;;;;;;;;;109338;1255;59379;-82
2023/02/14 00:46:39;;;;;;;68.70;45.30;;;;;;;;;;109333;1255;58979;-82
2023/02/14 00:49:05;;;;;;;67.30;45.00;;;;;;;;;;109366;1254;58997;-83
2023/02/14 00:51:32;;;;;;;67.10;46.00;;;;;;;;;;109332;1255;62942;-83
2023/02/14 00:53:59;;;;;;;67.80;46.70;;;;;;;;;;109340;1255;59181;-83
2023/02/14 00:56:26;;;;;;;61.60;44.50;;;;;;;;;;109130;1256;60944;-83
2023/02/14 00:58:52;;;;;;;66.50;45.70;;;;;;;;;;109321;1255;59452;-85
2023/02/14 01:01:19;;;;;;;64.20;44.70;;;;;;;;;;109229;1254;59056;-82
2023/02/14 01:03:46;;;;;;;63.80;45.00;;;;;;;;;;109375;1254;62123;-82
2023/02/14 01:06:12;;;;;;;64.30;45.70;;;;;;;;;;109340;1256;59048;-82
2023/02/14 01:08:39;;;;;;;62.00;45.40;;;;;;;;;;109382;1249;60967;-82
2023/02/14 01:11:16;;;;;;;64.00;46.40;;;;;;;;;;109719;1251;58993;-82
2023/02/14 01:13:43;;;;;;;65.20;48.10;;;;;;;;;;109657;1249;59005;-83
2023/02/14 01:16:11;;;;;;;71.90;53.70;;;;;;;;;;109644;1251;60556;-83
2023/02/14 01:18:39;;;;;;;63.60;47.00;;;;;;;;;;109668;1250;59621;-82
2023/02/14 01:21:25;;;;;;;63.30;44.80;;;;;;;;;;109774;1251;60916;-83
2023/02/14 01:23:53;;;;;;;65.70;46.30;;;;;;;;;;109702;1250;58985;-83
2023/02/14 01:26:20;;;;;;;62.50;43.30;;;;;;;;;;109571;1250;59211;-83
2023/02/14 01:28:47;;;;;;;60.70;42.50;;;;;;;;;;109797;1250;61874;-81
2023/02/14 01:31:16;;;;;;;67.20;46.90;;;;;;;;;;109650;1251;59175;-81
2023/02/14 01:33:43;;;;;;;64.20;47.20;;;;;;;;;;109729;1251;60920;-80
2023/02/14 01:36:17;;;;;;;59.90;44.80;;;;;;;;;;109771;1249;58992;-80
2023/02/14 01:38:43;;;;;;;64.50;43.80;;;;;;;;;;109794;1250;58995;-79
2023/02/14 01:41:10;;;;;;;63.90;42.60;;;;;;;;;;109790;1250;63065;-80
2023/02/14 01:43:55;;;;;;;58.60;42.80;;;;;;;;;;109768;1250;58974;-81
2023/02/14 01:46:23;;;;;;;61.90;42.70;;;;;;;;;;109738;1249;60960;-80
2023/02/14 01:48:49;;;;;;;59.00;40.60;;;;;;;;;;109751;1253;58976;-81
2023/02/14 01:51:17;;;;;;;60.50;42.20;;;;;;;;;;109761;1249;58910;-81
2023/02/14 01:53:44;;;;;;;60.70;41.80;;;;;;;;;;109777;1251;61921;-81
2023/02/14 01:56:13;;;;;;;61.20;42.50;;;;;;;;;;109801;1249;59161;-81
2023/02/14 01:58:43;;;;;;;59.00;39.50;;;;;;;;;;109652;1249;60894;-79
2023/02/14 02:01:15;;;;;;;52.10;37.90;;;;;;;;;;109694;1250;58933;-79
2023/02/14 02:03:41;;;;;;;52.30;38.80;;;;;;;;;;109729;1250;58922;-79
2023/02/14 02:06:16;;;;;;;54.00;38.60;;;;;;;;;;109708;1250;62188;-79
2023/02/14 02:08:47;;;;;;;55.90;37.70;;;;;;;;;;109754;1250;59066;-79
2023/02/14 02:11:14;;;;;;;59.90;39.80;;;;;;;;;;109714;1249;60850;-79
2023/02/14 02:13:40;;;;;;;58.20;41.30;;;;;;;;;;109526;1249;59051;-79
2023/02/14 02:16:17;;;;;;;56.60;38.90;;;;;;;;;;109768;1249;59137;-80
2023/02/14 02:18:52;;;;;;;61.50;38.60;;;;;;;;;;109758;1250;61892;-81
2023/02/14 02:21:22;;;;;;;58.80;41.40;;;;;;;;;;109774;1250;59342;-80
2023/02/14 02:24:12;;;;;;;57.00;41.70;;;;;;;;;;109718;1250;59940;-81
2023/02/14 02:26:44;;;;;;;55.80;42.70;;;;;;;;;;109147;1256;59084;-81
2023/02/14 02:29:11;;;;;;;52.60;38.90;;;;;;;;;;109212;1256;59550;-81
2023/02/14 02:31:49;;;;;;;54.30;39.80;;;;;;;;;;109170;1256;63424;-82
2023/02/14 02:34:36;;;;;;;49.60;36.30;;;;;;;;;;109168;1256;59325;-81
2023/02/14 02:37:09;;;;;;;54.00;37.40;;;;;;;;;;109157;1256;61026;-79
2023/02/14 02:39:48;;;;;;;51.70;37.30;;;;;;;;;;109128;1256;58995;-80
2023/02/14 02:42:17;;;;;;;47.30;35.00;;;;;;;;;;109119;1256;58894;-79
2023/02/14 02:44:50;;;;;;;47.70;33.90;;;;;;;;;;109144;1256;62124;-80
2023/02/14 02:47:35;;;;;;;50.60;35.90;;;;;;;;;;109142;1256;59107;-79
2023/02/14 02:53:05;;;;;;;47.80;35.00;;;;;;;;;;109128;1256;59021;-80
2023/02/14 02:58:36;;;;;;;48.60;35.00;;;;;;;;;;109024;1257;63218;-79
2023/02/14 03:01:06;;;;;;;46.80;34.50;;;;;;;;;;109114;1256;59297;-79
2023/02/14 03:06:18;;;;;;;50.10;35.50;;;;;;;;;;109769;1250;59065;-78
2023/02/14 03:08:45;;;;;;;48.40;34.90;;;;;;;;;;109768;1249;58860;-80
2023/02/14 03:11:11;;;;;;;49.00;35.80;;;;;;;;;;109504;1251;61987;-79
2023/02/14 03:13:38;;;;;;;52.30;38.40;;;;;;;;;;109745;1250;59040;-79
2023/02/14 03:16:14;;;;;;;55.80;39.50;;;;;;;;;;109738;1249;59930;-80
2023/02/14 03:21:34;;;;;;;50.80;35.50;;;;;;;;;;109766;1251;59033;-82
2023/02/14 03:24:12;;;;;;;51.30;35.80;;;;;;;;;;109825;1251;62112;-82
2023/02/14 03:26:44;;;;;;;50.10;36.10;;;;;;;;;;109783;1250;58994;-81
2023/02/14 03:29:25;;;;;;;45.40;34.50;;;;;;;;;;109788;1249;61065;-82
2023/02/14 03:32:11;;;;;;;44.60;33.50;;;;;;;;;;109373;1250;58916;-81
2023/02/14 03:34:45;;;;;;;45.10;32.50;;;;;;;;;;109788;1249;59097;-82
2023/02/14 03:37:31;;;;;;;39.40;31.10;;;;;;;;;;109830;1251;61999;-82
2023/02/14 03:39:58;;;;;;;41.90;30.50;;;;;;;;;;109669;1250;59417;-81
2023/02/14 03:42:27;;;;;;;40.50;29.20;;;;;;;;;;109763;1250;59922;-81
2023/02/14 03:44:54;;;;;;;39.90;30.30;;;;;;;;;;109790;1249;58934;-82
2023/02/14 03:47:25;;;;;;;40.70;27.70;;;;;;;;;;109775;1249;59094;-82
2023/02/14 03:49:55;;;;;;;38.80;28.80;;;;;;;;;;109782;1251;63427;-81
2023/02/14 03:52:22;;;;;;;42.50;30.20;;;;;;;;;;109663;1251;59186;-80
2023/02/14 03:54:51;;;;;;;40.20;30.40;;;;;;;;;;109728;1250;59975;-81
2023/02/14 03:57:23;;;;;;;43.90;31.70;;;;;;;;;;109736;1250;59140;-80
2023/02/14 03:59:50;;;;;;;46.20;33.60;;;;;;;;;;109756;1249;59128;-81
2023/02/14 04:02:23;;;;;;;45.10;31.90;;;;;;;;;;109745;1251;62955;-80
2023/02/14 04:04:50;;;;;;;50.20;35.50;;;;;;;;;;109791;1249;58845;-80
2023/02/14 04:07:21;;;;;;;52.00;36.80;;;;;;;;;;109780;1250;59901;-80
2023/02/14 04:09:48;;;;;;;51.30;36.60;;;;;;;;;;109681;1250;59061;-81
2023/02/14 04:12:15;;;;;;;51.50;37.60;;;;;;;;;;109770;1249;58989;-82
2023/02/14 04:14:42;;;;;;;51.40;36.20;;;;;;;;;;109699;1249;62127;-81
2023/02/14 04:19:53;;;;;;;48.90;33.80;;;;;;;;;;109737;1249;61030;-80
2023/02/14 04:22:20;;;;;;;55.40;37.00;;;;;;;;;;109753;1250;58979;-81
2023/02/14 04:24:46;;;;;;;48.50;36.30;;;;;;;;;;109789;1251;58853;-81
2023/02/14 04:27:13;;;;;;;51.00;37.50;;;;;;;;;;109820;1249;63039;-82
2023/02/14 04:29:41;;;;;;;56.50;39.80;;;;;;;;;;109759;1251;59062;-80
2023/02/14 04:32:08;;;;;;;52.00;37.70;;;;;;;;;;109683;1249;60994;-81
2023/02/14 04:34:35;;;;;;;60.40;41.90;;;;;;;;;;109518;1253;58898;-81
2023/02/14 04:37:02;;;;;;;62.60;44.10;;;;;;;;;;109713;1250;58912;-80
2023/02/14 04:39:29;;;;;;;64.20;45.80;;;;;;;;;;109793;1250;63070;-81
2023/02/14 04:41:56;;;;;;;64.10;45.40;;;;;;;;;;109776;1250;59029;-81
2023/02/14 04:44:22;;;;;;;55.50;41.60;;;;;;;;;;109727;1250;60812;-82
2023/02/14 04:46:49;;;;;;;59.20;41.50;;;;;;;;;;109788;1249;59158;-81
2023/02/14 04:49:16;;;;;;;58.40;40.10;;;;;;;;;;109622;1251;59124;-81
2023/02/14 04:51:43;;;;;;;56.30;40.80;;;;;;;;;;109769;1252;62964;-80
2023/02/14 04:54:09;;;;;;;56.60;41.70;;;;;;;;;;109564;1251;58931;-77
2023/02/14 04:56:36;;;;;;;52.20;38.50;;;;;;;;;;109720;1251;60062;-78
2023/02/14 04:59:03;;;;;;;58.10;40.90;;;;;;;;;;109711;1253;58993;-77
2023/02/14 05:01:29;;;;;;;68.10;46.30;;;;;;;;;;109589;1251;59051;-78
2023/02/14 05:03:56;;;;;;;61.30;44.70;;;;;;;;;;109792;1250;63200;-78
2023/02/14 05:06:22;;;;;;;59.30;40.50;;;;;;;;;;109758;1250;58881;-78
2023/02/14 05:08:49;;;;;;;61.00;42.90;;;;;;;;;;109750;1250;60976;-78
2023/02/14 05:11:16;;;;;;;55.50;40.10;;;;;;;;;;109748;1250;59049;-79
2023/02/14 05:13:42;;;;;;;54.60;38.80;;;;;;;;;;109476;1249;59091;-78
2023/02/14 05:16:09;;;;;;;57.40;40.30;;;;;;;;;;109774;1250;63201;-78
2023/02/14 05:18:35;;;;;;;58.60;43.20;;;;;;;;;;109779;1251;58861;-80
2023/02/14 05:21:02;;;;;;;60.20;44.50;;;;;;;;;;109741;1249;60527;-78
2023/02/14 05:23:28;;;;;;;56.30;39.90;;;;;;;;;;109736;1250;58980;-78
2023/02/14 05:25:55;;;;;;;61.30;42.60;;;;;;;;;;109486;1251;59024;-78
2023/02/14 05:28:21;;;;;;;62.90;46.90;;;;;;;;;;109712;1251;62067;-78
2023/02/14 05:30:49;;;;;;;54.20;39.40;;;;;;;;;;109789;1251;58937;-79
2023/02/14 05:33:15;;;;;;;48.10;33.50;;;;;;;;;;109746;1250;60975;-78
2023/02/14 05:35:42;;;;;;;51.90;38.30;;;;;;;;;;109726;1249;58965;-79
2023/02/14 05:38:09;;;;;;;55.20;39.80;;;;;;;;;;109718;1251;59066;-79
2023/02/14 05:40:35;;;;;;;51.90;39.60;;;;;;;;;;109466;1251;62804;-80
2023/02/14 05:43:02;;;;;;;48.40;36.30;;;;;;;;;;109781;1250;59018;-78
2023/02/14 05:45:28;;;;;;;43.50;33.50;;;;;;;;;;109707;1251;60925;-78
2023/02/14 05:47:55;;;;;;;48.00;33.50;;;;;;;;;;109704;1249;58959;-78
2023/02/14 05:50:22;;;;;;;45.50;34.80;;;;;;;;;;109742;1250;58880;-78
2023/02/14 05:52:48;;;;;;;48.80;35.90;;;;;;;;;;109750;1249;63140;-79
2023/02/14 05:55:15;;;;;;;43.40;33.70;;;;;;;;;;109754;1251;58966;-77
2023/02/14 05:57:42;;;;;;;43.60;33.50;;;;;;;;;;109728;1251;60923;-78
2023/02/14 06:00:09;;;;;;;46.40;32.70;;;;;;;;;;109730;1250;59654;-78
2023/02/14 06:02:35;;;;;;;42.90;32.00;;;;;;;;;;109756;1251;59126;-78
2023/02/14 06:05:02;;;;;;;50.40;37.20;;;;;;;;;;109740;1253;62836;-78
2023/02/14 06:07:29;;;;;;;49.40;34.80;;;;;;;;;;109491;1250;59477;-78
2023/02/14 06:09:55;;;;;;;45.00;32.10;;;;;;;;;;109693;1250;59947;-78
2023/02/14 06:12:22;;;;;;;44.30;33.30;;;;;;;;;;108983;1251;1002589;-78
2023/02/14 06:14:48;;;;;;;51.40;39.30;;;;;;;;;;109752;1250;59175;-78
2023/02/14 06:17:15;;;;;;;48.90;34.60;;;;;;;;;;109697;1251;63100;-78
2023/02/14 06:19:42;;;;;;;49.20;35.80;;;;;;;;;;109759;1250;58912;-78
2023/02/14 06:22:08;;;;;;;46.20;35.80;;;;;;;;;;109566;1249;61045;-78
2023/02/14 06:24:35;;;;;;;47.80;37.00;;;;;;;;;;109733;1249;58949;-78
2023/02/14 06:27:09;;;;;;;53.80;37.00;;;;;;;;;;109772;1250;58907;-78
2023/02/14 06:29:36;;;;;;;54.50;39.00;;;;;;;;;;109743;1251;63054;-79
2023/02/14 06:32:05;;;;;;;49.20;37.40;;;;;;;;;;109723;1251;58999;-79
2023/02/14 06:34:32;;;;;;;56.40;40.10;;;;;;;;;;109463;1250;59854;-79
2023/02/14 06:36:59;;;;;;;52.50;39.30;;;;;;;;;;109720;1250;59051;-79
2023/02/14 06:39:25;;;;;;;58.40;39.40;;;;;;;;;;109720;1251;59017;-78
2023/02/14 06:41:52;;;;;;;46.70;35.60;;;;;;;;;;109785;1251;62073;-78
2023/02/14 06:44:20;;;;;;;55.30;37.20;;;;;;;;;;109731;1251;58883;-78
2023/02/14 06:46:47;;;;;;;53.50;38.70;;;;;;;;;;109756;1250;60921;-78
2023/02/14 06:49:13;;;;;;;55.70;40.80;;;;;;;;;;109720;1251;58969;-78
2023/02/14 06:51:40;;;;;;;58.10;43.30;;;;;;;;;;109741;1251;59268;-79
2023/02/14 06:54:06;;;;;;;57.50;41.70;;;;;;;;;;109751;1251;63000;-78
2023/02/14 06:56:33;;;;;;;52.70;39.70;;;;;;;;;;109635;1249;59490;-78
2023/02/14 06:59:00;;;;;;;53.00;39.10;;;;;;;;;;109742;1250;60867;-78
2023/02/14 07:01:26;;;;;;;55.80;40.90;;;;;;;;;;109727;1251;59249;-79
2023/02/14 07:03:53;;;;;;;54.10;40.10;;;;;;;;;;109739;1249;59121;-78
2023/02/14 07:06:20;;;;;;;57.40;40.80;;;;;;;;;;109754;1250;62009;-78
2023/02/14 07:08:46;;;;;;;55.30;38.40;;;;;;;;;;109605;1251;58939;-79
2023/02/14 07:11:13;;;;;;;56.30;43.90;;;;;;;;;;109449;1251;59431;-79
2023/02/14 07:13:39;;;;;;;59.60;43.10;;;;;;;;;;109705;1250;59100;-79
2023/02/14 07:16:06;;;;;;;54.90;39.10;;;;;;;;;;109614;1251;59031;-79
2023/02/14 07:18:33;;;;;;;55.30;39.70;;;;;;;;;;109552;1251;63195;-79
2023/02/14 07:20:59;;;;;;;62.30;44.40;;;;;;;;;;109457;1251;59145;-79
2023/02/14 07:23:26;;;;;;;63.40;44.20;;;;;;;;;;109720;1251;59912;-79
2023/02/14 07:25:53;;;;;;;68.80;47.10;;;;;;;;;;109711;1251;58931;-79
2023/02/14 07:28:20;;;;;;;63.20;43.40;;;;;;;;;;109481;1251;59105;-79
2023/02/14 07:30:47;;;;;;;60.40;42.90;;;;;;;;;;109725;1251;63031;-79
2023/02/14 07:33:13;;;;;;;64.60;42.80;;;;;;;;;;109743;1251;59296;-79
2023/02/14 07:35:40;;;;;;;56.80;41.20;;;;;;;;;;109744;1251;60056;-79
2023/02/14 07:38:06;;;;;;;55.40;38.70;;;;;;;;;;109695;1251;59012;-78
2023/02/14 07:40:33;;;;;;;52.40;38.30;;;;;;;;;;109809;1249;59016;-79
2023/02/14 07:43:00;;;;;;;55.10;38.90;;;;;;;;;;109697;1253;63037;-78
2023/02/14 07:45:26;;;;;;;51.10;37.00;;;;;;;;;;109719;1251;59203;-79
2023/02/14 07:47:53;;;;;;;52.00;36.20;;;;;;;;;;109768;1251;60863;-79
2023/02/14 07:50:21;;;;;;;46.70;35.00;;;;;;;;;;109719;1251;59113;-80
2023/02/14 07:52:48;;;;;;;47.80;35.40;;;;;;;;;;109630;1250;58818;-80
2023/02/14 07:55:15;;;;;;;51.30;37.90;;;;;;;;;;109738;1251;63053;-80
2023/02/14 07:57:41;;;;;;;45.60;35.40;;;;;;;;;;109707;1253;59001;-79
2023/02/14 08:00:08;;;;;;;48.30;36.40;;;;;;;;;;109730;1249;61088;-79
2023/02/14 08:02:35;;;;;;;48.60;37.50;;;;;;;;;;109737;1250;58979;-79
2023/02/14 08:05:02;;;;;;;48.80;37.80;;;;;;;;;;109626;1252;127359;-80
2023/02/14 08:07:29;;;;;;;50.40;36.20;;;;;;;;;;109767;1250;62117;-80
2023/02/14 08:09:56;;;;;;;46.30;36.00;;;;;;;;;;109758;1250;59448;-79
2023/02/14 08:17:54;;;;;;;40.60;31.10;;;;;;;;;;109770;1250;58915;-79
2023/02/14 08:20:24;;;;;;;44.20;31.40;;;;;;;;;;109538;1250;62082;-80
2023/02/14 08:22:51;;;;;;;43.60;32.80;;;;;;;;;;109742;1250;58866;-80
2023/02/14 08:25:17;;;;;;;42.60;31.80;;;;;;;;;;109744;1251;58980;-80
2023/02/14 08:27:44;;;;;;;40.20;30.90;;;;;;;;;;109736;1250;58976;-80
2023/02/14 08:30:11;;;;;;;38.00;29.40;;;;;;;;;;109715;1251;58870;-79
2023/02/14 08:32:37;;;;;;;38.10;28.40;;;;;;;;;;109757;1250;63052;-74
2023/02/14 08:35:04;;;;;;;35.40;26.60;;;;;;;;;;109719;1250;59280;-75
2023/02/14 08:37:30;;;;;;;38.50;27.70;;;;;;;;;;109362;1251;59891;-75
2023/02/14 08:39:57;;;;;;;35.50;26.10;;;;;;;;;;109705;1249;59268;-75
2023/02/14 08:42:23;;;;;;;31.00;24.30;;;;;;;;;;109392;1250;59020;-75
2023/02/14 08:44:50;;;;;;;30.00;21.80;;;;;;;;;;109741;1249;63102;-74
2023/02/14 08:47:16;;;;;;;31.80;23.70;;;;;;;;;;109717;1250;58936;-74
2023/02/14 08:49:43;;;;;;;29.20;22.80;;;;;;;;;;109769;1249;59758;-74
2023/02/14 08:52:11;;;;;;;29.80;23.60;;;;;;;;;;109745;1250;58987;-74
2023/02/14 08:54:38;;;;;;;29.90;22.50;;;;;;;;;;109712;1251;58926;-75
2023/02/14 08:57:04;;;;;;;27.10;21.50;;;;;;;;;;109611;1249;63124;-74
2023/02/14 08:59:31;;;;;;;30.60;21.90;;;;;;;;;;109763;1251;59088;-74
2023/02/14 09:01:57;;;;;;;30.90;21.50;;;;;;;;;;109382;1251;61075;-75
2023/02/14 09:04:24;;;;;;;27.30;21.80;;;;;;;;;;109717;1249;58991;-76
2023/02/14 09:06:50;;;;;;;25.70;19.80;;;;;;;;;;109690;1251;58942;-75
2023/02/14 09:09:18;;;;;;;28.90;20.90;;;;;;;;;;109724;1250;61923;-75
2023/02/14 09:11:44;;;;;;;26.20;21.10;;;;;;;;;;109763;1251;59013;-75
2023/02/14 09:14:11;;;;;;;27.20;21.30;;;;;;;;;;109714;1250;59427;-74
2023/02/14 09:16:38;;;;;;;30.70;22.60;;;;;;;;;;109693;1251;59072;-74
2023/02/14 09:19:05;;;;;;;25.00;20.50;;;;;;;;;;109715;1251;59194;-74
2023/02/14 09:21:33;;;;;;;26.10;21.10;;;;;;;;;;109738;1251;62100;-74
2023/02/14 09:23:59;;;;;;;28.90;21.90;;;;;;;;;;109749;1250;59173;-74
2023/02/14 09:26:26;;;;;;;28.90;22.00;;;;;;;;;;109734;1250;61011;-74
2023/02/14 09:28:53;;;;;;;28.40;22.00;;;;;;;;;;109774;1250;59045;-77
2023/02/14 09:31:21;;;;;;;26.50;22.60;;;;;;;;;;109649;1251;59194;-77
2023/02/14 09:33:48;;;;;;;29.40;21.60;;;;;;;;;;109685;1251;63105;-74
2023/02/14 09:39:00;;;;;;;30.00;22.60;;;;;;;;;;109661;1250;59541;-76
2023/02/14 09:41:29;;;;;;;30.80;23.80;;;;;;;;;;109672;1250;59064;-77
2023/02/14 09:44:06;;;;;;;30.40;24.10;;;;;;;;;;109633;1250;58944;-76
2023/02/14 09:46:38;;;;;;;31.00;24.00;;;;;;;;;;109674;1250;62158;-76
2023/02/14 09:49:07;;;;;;;31.70;22.30;;;;;;;;;;109685;1251;59088;-73
2023/02/14 09:51:34;;;;;;;31.50;22.80;;;;;;;;;;109656;1251;59950;-74
2023/02/14 09:54:04;;;;;;;28.80;23.00;;;;;;;;;;109671;1251;59142;-74
2023/02/14 09:56:31;;;;;;;;;;;;;;;;;;109444;1250;59153;-76
2023/02/14 09:59:04;;;;;;;27.20;21.80;;;;;;;;;;109703;1250;59198;-74
2023/02/14 10:01:38;;;;;;;25.10;21.20;;;;;;;;;;109500;1254;59290;-75
2023/02/14 10:04:25;;;;;;;28.00;20.20;;;;;;;;;;109572;1250;59915;-75
2023/02/14 10:06:51;;;;;;;23.60;18.30;;;;;;;;;;109077;1256;59310;-78
2023/02/14 10:09:35;;;;;;;25.90;20.30;;;;;;;;;;109075;1257;58894;-79
2023/02/14 10:12:01;;;;;;;26.00;18.30;;;;;;;;;;109086;1257;63248;-78
2023/02/14 10:14:35;;;;;;;24.70;20.60;;;;;;;;;;109095;1256;59706;-78
2023/02/14 10:17:07;;;;;;;24.20;18.70;;;;;;;;;;109061;1257;61054;-79
2023/02/14 10:19:37;;;;;;;24.40;17.90;;;;;;;;;;109055;1257;59001;-79
2023/02/14 10:22:13;;;;;;;22.50;18.10;;;;;;;;;;109102;1257;59858;-77
2023/02/14 10:24:42;;;;;;;25.00;19.50;;;;;;;;;;109081;1257;62202;-78
2023/02/14 10:27:27;;;;;;;19.80;16.10;;;;;;;;;;109063;1256;59197;-74
2023/02/14 10:29:54;;;;;;;18.50;15.50;;;;;;;;;;109029;1257;59942;-76
2023/02/14 10:32:26;;;;;;;16.90;14.90;;;;;;;;;;109059;1257;59202;-75
2023/02/14 10:34:55;;;;;;;25.40;20.50;;;;;;;;;;109061;1256;59095;-78
2023/02/14 10:37:27;;;;;;;21.30;15.80;;;;;;;;;;109083;1256;63079;-75
2023/02/14 10:40:04;;;;;;;18.50;14.90;;;;;;;;;;109050;1257;59258;-74
2023/02/14 10:42:31;;;;;;;18.80;15.00;;;;;;;;;;109036;1256;61060;-80
2023/02/14 10:45:00;;;;;;;22.80;16.20;;;;;;;;;;109590;1250;59490;-80
2023/02/14 10:47:35;;;;;;;18.40;16.30;;;;;;;;;;109375;1249;59519;-77
2023/02/14 10:50:10;;;;;;;18.10;15.00;;;;;;;;;;109711;1250;63421;-78
2023/02/14 10:52:52;;;;;;;19.40;15.80;;;;;;;;;;109715;1250;59061;-77
2023/02/14 10:55:20;;;;;;;18.40;15.10;;;;;;;;;;109724;1249;60982;-81
2023/02/14 10:57:49;;;;;;;18.40;15.00;;;;;;;;;;109726;1250;58987;-81
2023/02/14 11:00:16;;;;;;;21.20;15.00;;;;;;;;;;109739;1251;58884;-79
2023/02/14 11:02:43;;;;;;;19.80;13.50;;;;;;;;;;109684;1249;61967;-80
2023/02/14 11:05:27;;;;;;;19.70;13.60;;;;;;;;;;109475;1250;58968;-81
2023/02/14 11:07:55;;;;;;;17.90;14.60;;;;;;;;;;109721;1250;59821;-82
2023/02/14 11:10:24;;;;;;;16.10;14.20;;;;;;;;;;109724;1250;58983;-79
2023/02/14 11:12:51;;;;;;;17.80;14.80;;;;;;;;;;109744;1250;59441;-79
2023/02/14 11:15:31;;;;;;;16.80;13.10;;;;;;;;;;109729;1249;63318;-80
2023/02/14 11:18:20;;;;;;;16.90;13.10;;;;;;;;;;109584;1250;58981;-80
2023/02/14 11:21:05;;;;;;;16.80;13.00;;;;;;;;;;109736;1250;59870;-80
2023/02/14 11:23:35;;;;;;;18.40;13.00;;;;;;;;;;109719;1250;58971;-80
2023/02/14 11:26:03;;;;;;;18.70;14.20;;;;;;;;;;109725;1250;59080;-81
2023/02/14 11:28:30;;;;;;;24.40;14.10;;;;;;;;;;109725;1250;63071;-81
2023/02/14 11:30:57;;;;;;;19.60;14.10;;;;;;;;;;109512;1251;59179;-80
2023/02/14 11:33:23;;;;;;;18.90;14.40;;;;;;;;;;109455;1249;59929;-79
2023/02/14 11:35:51;;;;;;;19.00;13.90;;;;;;;;;;109737;1250;59033;-80
2023/02/14 11:38:29;;;;;;;18.40;14.20;;;;;;;;;;109560;1250;59016;-80
2023/02/14 11:40:57;;;;;;;19.20;13.80;;;;;;;;;;109709;1250;62001;-80
2023/02/14 11:43:35;;;;;;;14.60;11.40;;;;;;;;;;109601;1250;58907;-81
2023/02/14 11:46:12;;;;;;;16.20;12.10;;;;;;;;;;109569;1250;59755;-82
2023/02/14 11:48:38;;;;;;;21.60;14.80;;;;;;;;;;109703;1249;59047;-79
2023/02/14 11:51:09;;;;;;;16.70;13.60;;;;;;;;;;109707;1249;59021;-82
2023/02/14 11:53:50;;;;;;;15.50;12.10;;;;;;;;;;109729;1250;62312;-81
2023/02/14 11:56:19;;;;;;;16.60;12.40;;;;;;;;;;109791;1249;58969;-81
2023/02/14 11:59:05;;;;;;;14.50;12.10;;;;;;;;;;109741;1249;60737;-79
2023/02/14 12:01:33;;;;;;;15.90;13.50;;;;;;;;;;109441;1251;59102;-81
2023/02/14 12:04:14;;;;;;;17.50;13.00;;;;;;;;;;109740;1250;59037;-80
2023/02/14 12:06:40;;;;;;;18.10;12.90;;;;;;;;;;109428;1250;63108;-79
2023/02/14 12:09:10;;;;;;;16.30;12.80;;;;;;;;;;109723;1253;59344;-81
2023/02/14 12:11:36;;;;;;;13.30;11.40;;;;;;;;;;109740;1250;59985;-81
2023/02/14 12:14:04;;;;;;;15.60;12.00;;;;;;;;;;109716;1250;58949;-81
2023/02/14 12:16:37;;;;;;;12.90;10.80;;;;;;;;;;109723;1250;59369;-80
2023/02/14 12:19:12;;;;;;;15.00;11.70;;;;;;;;;;109753;1253;62067;-80
2023/02/14 12:21:45;;;;;;;15.70;11.70;;;;;;;;;;109712;1250;58857;-79
2023/02/14 12:24:19;;;;;;;16.80;11.90;;;;;;;;;;109713;1249;59824;-80
2023/02/14 12:26:52;;;;;;;15.20;11.40;;;;;;;;;;109592;1249;58947;-80
2023/02/14 12:29:36;;;;;;;16.30;11.90;;;;;;;;;;109748;1249;59093;-79
2023/02/14 12:32:20;;;;;;;16.30;12.10;;;;;;;;;;109755;1250;60782;-81
2023/02/14 12:34:47;;;;;;;17.60;11.80;;;;;;;;;;109624;1250;59139;-82
2023/02/14 12:37:17;;;;;;;15.20;12.50;;;;;;;;;;109717;1250;60826;-80
2023/02/14 12:39:53;;;;;;;20.80;13.70;;;;;;;;;;109754;1249;58952;-78
2023/02/14 12:42:25;;;;;;;18.50;13.00;;;;;;;;;;109733;1250;59038;-80
2023/02/14 12:44:52;;;;;;;18.10;13.40;;;;;;;;;;109763;1250;62049;-80
2023/02/14 12:47:21;;;;;;;17.90;13.80;;;;;;;;;;109760;1250;58875;-81
2023/02/14 12:50:07;;;;;;;18.10;14.70;;;;;;;;;;109725;1250;59954;-81
2023/02/14 12:52:57;;;;;;;17.80;14.20;;;;;;;;;;109711;1249;58982;-81
2023/02/14 12:55:32;;;;;;;17.10;13.60;;;;;;;;;;109078;1256;59105;-80
2023/02/14 12:57:59;;;;;;;18.80;14.20;;;;;;;;;;109083;1256;62921;-81
2023/02/14 13:00:37;;;;;;;17.40;12.90;;;;;;;;;;108951;1256;59129;-81
2023/02/14 13:03:33;;;;;;;15.60;12.60;;;;;;;;;;109129;1256;59939;-81
2023/02/14 13:06:16;;;;;;;19.20;14.90;;;;;;;;;;108757;1262;59434;-81
2023/02/14 13:08:45;;;;;;;14.40;11.70;;;;;;;;;;108790;1262;58955;-81
2023/02/14 13:11:12;;;;;;;13.00;11.70;;;;;;;;;;108766;1262;62751;-80
2023/02/14 13:13:41;;;;;;;16.20;12.50;;;;;;;;;;108812;1262;59137;-80
2023/02/14 13:16:20;;;;;;;15.00;11.70;;;;;;;;;;108781;1262;61013;-80
2023/02/14 13:18:48;;;;;;;18.30;14.30;;;;;;;;;;108745;1262;59425;-81
2023/02/14 13:21:17;;;;;;;20.30;16.70;;;;;;;;;;108794;1262;59364;-78
2023/02/14 13:23:45;;;;;;;16.30;12.90;;;;;;;;;;108771;1262;62233;-80
2023/02/14 13:26:17;;;;;;;14.10;12.40;;;;;;;;;;108792;1262;59386;-80
2023/02/14 13:28:49;;;;;;;17.10;12.70;;;;;;;;;;108779;1262;60927;-80
2023/02/14 13:31:17;;;;;;;15.90;12.10;;;;;;;;;;108781;1262;59352;-81
2023/02/14 13:33:47;;;;;;;17.10;13.10;;;;;;;;;;109056;1256;58972;-81
2023/02/14 13:36:14;;;;;;;19.20;15.00;;;;;;;;;;109110;1256;63215;-81
2023/02/14 13:38:46;;;;;;;18.00;13.20;;;;;;;;;;109122;1256;59145;-81
2023/02/14 13:41:14;;;;;;;18.90;14.70;;;;;;;;;;109104;1256;60582;-79
2023/02/14 13:43:44;;;;;;;15.90;13.60;;;;;;;;;;109642;1249;58920;-80
2023/02/14 13:46:11;;;;;;;14.80;13.20;;;;;;;;;;109712;1249;58920;-80
2023/02/14 13:48:38;;;;;;;17.00;13.90;;;;;;;;;;109561;1250;63158;-79
2023/02/14 13:51:07;;;;;;;19.70;17.70;;;;;;;;;;109715;1249;58994;-80
2023/02/14 13:53:36;;;;;;;17.40;15.20;;;;;;;;;;109740;1249;59804;-79
2023/02/14 13:56:04;;;;;;;18.20;15.80;;;;;;;;;;109380;1253;59106;-78
2023/02/14 13:58:31;;;;;;;16.70;14.80;;;;;;;;;;109461;1253;58955;-80
2023/02/14 14:00:58;;;;;;;16.30;13.80;;;;;;;;;;109395;1253;61950;-81
2023/02/14 14:03:24;;;;;;;17.90;14.20;;;;;;;;;;109390;1253;59261;-78
2023/02/14 14:06:02;;;;;;;16.10;14.00;;;;;;;;;;109106;1254;59068;-82
2023/02/14 14:08:30;;;;;;;18.10;14.10;;;;;;;;;;109380;1253;59089;-79
2023/02/14 14:10:56;;;;;;;15.30;13.80;;;;;;;;;;109376;1253;59036;-81
2023/02/14 14:13:37;;;;;;;18.40;14.30;;;;;;;;;;109319;1253;63223;-81
2023/02/14 14:16:22;;;;;;;17.40;15.60;;;;;;;;;;109372;1253;59060;-79
2023/02/14 14:18:50;;;;;;;18.90;14.60;;;;;;;;;;109402;1253;60801;-79
2023/02/14 14:21:33;;;;;;;20.50;16.70;;;;;;;;;;109375;1253;59020;-80
2023/02/14 14:24:20;;;;;;;23.10;16.50;;;;;;;;;;109367;1253;59059;-80
2023/02/14 14:27:10;;;;;;;21.00;17.90;;;;;;;;;;109000;1256;63098;-80
2023/02/14 14:29:44;;;;;;;20.60;17.20;;;;;;;;;;108705;1263;58898;-79
2023/02/14 14:32:17;;;;;;;23.90;19.20;;;;;;;;;;108668;1264;60012;-80
2023/02/14 14:34:51;;;;;;;21.80;17.80;;;;;;;;;;108667;1264;58995;-79
2023/02/14 14:37:19;;;;;;;18.00;14.60;;;;;;;;;;108711;1264;59202;-78
2023/02/14 14:39:55;;;;;;;19.30;14.50;;;;;;;;;;108641;1263;61938;-78
2023/02/14 14:42:23;;;;;;;23.50;16.20;;;;;;;;;;108708;1264;59273;-80
2023/02/14 14:45:00;;;;;;;18.20;15.50;;;;;;;;;;108642;1263;60084;-80